Etusivu
METAR-TAF:

METAR-TAF

Lentoasemat :

Wonderboom Airport

Pretoria, Etelä-Afrikka

Leveyspiiri: 25-39S, Pituuspiiri: 028-13E, korkeus merenpinnasta: 1248 m

Tämänhetkinen sää

Tämä raportti tehtiin 23 tuntia ja 6 minuuttia sitten, kello 11.00 UTC
Tuuli 3 kn etelästä/kaakosta
Lämpötila 21°C
Kosteus 83%
Ilmanpaine 1021 hPa
Näkyvyys 10 km tai enemmän
Hajanaisia pilviä 3000 ft:n korkeudessa

METAR: FAWB 251100Z 15003KT 9999 SCT030 21/18 Q1021

Aika: 12:06 (10:06 UTC)

Sääennuste

Tämä raportti tehtiin 1 tunti ja 6 minuuttia sitten, kello 09.00 UTC
Ennuste voimassa 26. päivästä klo 10 UTC - 26. päivään klo 18 UTC
Tuuli 3 kn eri suunnista
Näkyvyys 10 km tai enemmän
ei pilviä alle 1500 m:ssä eikä cumulonimbus-pilviä
Tulossa
26. päivästä klo 16 UTC - 26. päivään klo 18 UTC
Tuuli 7 kn etelästä/kaakosta

TAF: FAWB 260900Z 2610/2618 VRB03KT CAVOK TX28/2613Z TN17/2618Z BECMG 2616/2618 16007KT

Säähavainnot ja -ennusteet yli 4000 lentoasemalta (METAR- ja TAF-raportit).

Käytössä olevat sääasemat on merkitty karttaan keltaisilla ja punaisilla pisteillä.

Aseta hiiri pisteen päälle nähdäksesi sääaseman nimen.

Klikkaa sitten nähdäksesi säähavainnot ja -ennusteet.

Kartan vaihtaminen: klikkaa mustalla rastilla varustettuja vihreitä pisteitä, niin voit zoomata sisään; viivalla varustettua vihreää pistettä, niin voit zoomata ulos tai vihreitä nuolia, niin pääset viereisille kartoille.


METAR-TAF: